Time;durP1;ratioP1;P1;durP2;ratioP2;P2;SDS_P1;SDS_P2;PMS_P1;PMS_P2;Temp;Humidity;BMP_temperature;BMP_pressure;BME280_temperature;BME280_humidity;BME280_pressure;Samples;Min_cycle;Max_cycle;Signal;HPM_P1;HPM_P2
2021/08/14 00:00:09;;;;;;;17.52;6.05;;;;;;;13.83;100.00;102106.41;2614283;36;20089;-62
2021/08/14 00:02:38;;;;;;;17.60;6.38;;;;;;;13.85;100.00;102093.59;2617040;36;20031;-62
2021/08/14 00:05:07;;;;;;;19.88;6.45;;;;;;;13.89;100.00;102095.06;2616718;36;20082;-62
2021/08/14 00:07:35;;;;;;;;;;;;;;;13.88;100.00;102085.22;2617135;36;20110;-62
2021/08/14 00:10:03;;;;;;;19.20;6.85;;;;;;;13.86;100.00;102086.34;2616885;36;20038;-62
2021/08/14 00:12:32;;;;;;;17.07;6.40;;;;;;;13.89;100.00;102095.06;2616783;36;20034;-62
2021/08/14 00:15:00;;;;;;;20.15;7.25;;;;;;;13.93;100.00;102088.41;2616776;36;20279;-62
2021/08/14 00:17:29;;;;;;;16.58;6.47;;;;;;;13.94;100.00;102082.03;2616726;36;20122;-61
2021/08/14 00:19:58;;;;;;;14.88;6.68;;;;;;;13.93;100.00;102079.44;2616755;36;20635;-62
2021/08/14 00:22:26;;;;;;;24.00;6.93;;;;;;;13.95;100.00;102077.44;2616808;36;20591;-61
2021/08/14 00:24:54;;;;;;;16.23;6.82;;;;;;;14.06;100.00;102084.66;2617301;36;20508;-62
2021/08/14 00:27:22;;;;;;;17.92;6.57;;;;;;;14.07;100.00;102080.97;2616934;36;20166;-62
2021/08/14 00:29:50;;;;;;;19.08;6.57;;;;;;;14.09;100.00;102079.00;2616950;36;20049;-62
2021/08/14 00:32:19;;;;;;;17.75;6.72;;;;;;;14.06;100.00;102079.25;2616425;36;20173;-62
2021/08/14 00:34:48;;;;;;;19.15;7.25;;;;;;;14.08;100.00;102077.28;2617053;31;20162;-62
2021/08/14 00:37:16;;;;;;;18.73;7.07;;;;;;;14.17;100.00;102076.50;2617017;36;20178;-62
2021/08/14 00:39:45;;;;;;;14.50;5.57;;;;;;;14.19;100.00;102079.94;2616630;36;20114;-61
2021/08/14 00:42:13;;;;;;;20.30;6.15;;;;;;;14.22;100.00;102076.09;2616972;36;20121;-62
2021/08/14 00:44:41;;;;;;;16.85;6.43;;;;;;;14.25;100.00;102083.97;2616225;36;20054;-62
2021/08/14 00:47:09;;;;;;;22.65;7.00;;;;;;;14.28;100.00;102084.59;2616748;36;20162;-62
2021/08/14 00:49:38;;;;;;;19.40;6.47;;;;;;;14.25;100.00;102074.03;2617054;36;20038;-62
2021/08/14 00:52:08;;;;;;;15.70;6.03;;;;;;;14.27;100.00;102074.75;2618436;31;20371;-62
2021/08/14 00:54:38;;;;;;;18.00;6.70;;;;;;;14.27;100.00;102084.72;2618389;31;20569;-62
2021/08/14 00:57:06;;;;;;;16.35;6.53;;;;;;;14.27;100.00;102084.72;2617358;36;20033;-61
2021/08/14 00:59:36;;;;;;;16.73;6.35;;;;;;;14.30;100.00;102076.34;2617442;31;20150;-61
2021/08/14 01:02:04;;;;;;;;;;;;;;;14.32;100.00;102069.78;2617618;36;20166;-62
2021/08/14 01:04:33;;;;;;;15.40;6.60;;;;;;;14.36;100.00;102065.81;2617499;36;20022;-61
2021/08/14 01:07:02;;;;;;;17.35;7.15;;;;;;;14.39;100.00;102064.69;2618129;36;20039;-61
2021/08/14 01:09:32;;;;;;;12.88;5.70;;;;;;;14.43;100.00;102062.56;2617931;36;20085;-62
2021/08/14 01:12:02;;;;;;;19.45;6.57;;;;;;;14.42;100.00;102059.03;2617195;36;20050;-62
2021/08/14 01:14:30;;;;;;;22.15;6.80;;;;;;;14.40;100.00;102054.72;2617290;36;20034;-62
2021/08/14 01:16:59;;;;;;;14.57;6.00;;;;;;;14.41;100.00;102048.31;2617594;36;20118;-62
2021/08/14 01:21:54;;;;;;;28.20;7.25;;;;;;;14.41;100.00;102056.44;2617415;36;20427;-62
2021/08/14 01:24:24;;;;;;;20.70;6.77;;;;;;;14.41;100.00;102049.16;2616847;36;20141;-62
2021/08/14 01:26:54;;;;;;;21.20;6.82;;;;;;;14.41;100.00;102041.03;2617211;36;20073;-62
2021/08/14 01:29:22;;;;;;;19.48;6.75;;;;;;;14.41;100.00;102046.47;2617686;36;20027;-62
2021/08/14 01:31:50;;;;;;;19.33;7.07;;;;;;;14.48;100.00;102055.78;2617331;36;20129;-62
2021/08/14 01:34:21;;;;;;;20.95;7.25;;;;;;;14.47;100.00;102050.50;2617245;31;20121;-63
2021/08/14 01:36:50;;;;;;;16.48;6.93;;;;;;;14.41;100.00;102051.88;2617645;36;20038;-63
2021/08/14 01:39:19;;;;;;;25.73;7.00;;;;;;;14.44;100.00;102048.03;2617399;36;20161;-62
2021/08/14 01:42:00;;;;;;;16.37;7.37;;;;;;;14.46;100.00;102051.50;2617315;36;20121;-62
2021/08/14 01:44:30;;;;;;;18.65;6.97;;;;;;;14.46;100.00;102043.38;2617310;36;20326;-63
2021/08/14 01:46:59;;;;;;;20.42;7.82;;;;;;;14.46;100.00;102037.97;2617588;36;20026;-63
2021/08/14 01:49:28;;;;;;;21.58;7.65;;;;;;;14.47;100.00;102042.38;2616924;36;20160;-63
2021/08/14 01:51:56;;;;;;;21.88;7.35;;;;;;;14.44;100.00;102035.38;2617607;36;20022;-63
2021/08/14 01:54:25;;;;;;;22.92;8.07;;;;;;;14.43;100.00;102046.31;2617150;36;20526;-63
2021/08/14 01:56:54;;;;;;;20.95;7.25;;;;;;;14.42;100.00;102039.22;2617125;36;20540;-62
2021/08/14 01:59:23;;;;;;;26.55;8.13;;;;;;;14.39;100.00;102034.06;2617479;36;20081;-63
2021/08/14 02:01:51;;;;;;;20.75;8.05;;;;;;;14.34;100.00;102040.72;2617231;36;20504;-64
2021/08/14 02:04:20;;;;;;;28.15;8.10;;;;;;;14.34;100.00;102045.28;2617298;36;20638;-60
2021/08/14 02:06:48;;;;;;;20.95;7.45;;;;;;;14.32;100.00;102041.84;2617592;36;20110;-61
2021/08/14 02:09:16;;;;;;;24.23;8.47;;;;;;;14.33;100.00;102044.41;2617358;31;20062;-61
2021/08/14 02:11:45;;;;;;;14.82;7.50;;;;;;;14.27;100.00;102036.81;2616921;36;20383;-61
2021/08/14 02:14:14;;;;;;;22.45;8.35;;;;;;;14.30;100.00;102044.69;2617439;36;20084;-61
2021/08/14 02:16:44;;;;;;;23.98;8.55;;;;;;;14.29;100.00;102042.94;2617989;36;20089;-61
2021/08/14 02:19:13;;;;;;;24.35;8.18;;;;;;;14.26;100.00;102045.94;2617294;36;20169;-61
2021/08/14 02:21:41;;;;;;;24.35;8.23;;;;;;;14.28;100.00;102035.84;2617015;36;20150;-62
2021/08/14 02:24:09;;;;;;;27.25;9.05;;;;;;;14.28;100.00;102038.56;2617220;36;20113;-61
2021/08/14 02:26:37;;;;;;;19.95;9.05;;;;;;;14.28;100.00;102037.66;2617529;36;20069;-61
2021/08/14 02:29:05;;;;;;;25.10;8.18;;;;;;;14.29;100.00;102031.28;2617400;36;20026;-61
2021/08/14 02:31:34;;;;;;;20.40;8.63;;;;;;;14.29;100.00;102024.00;2617086;36;20121;-62
2021/08/14 02:34:03;;;;;;;25.67;8.68;;;;;;;14.36;100.00;102027.91;2616928;36;20610;-63
2021/08/14 02:36:31;;;;;;;23.85;8.45;;;;;;;14.31;100.00;102032.00;2617424;36;20114;-63
2021/08/14 02:39:00;;;;;;;18.92;9.00;;;;;;;14.29;100.00;102018.59;2617641;36;20073;-63
2021/08/14 02:41:28;;;;;;;24.80;9.02;;;;;;;14.32;100.00;102021.03;2616900;36;20106;-63
2021/08/14 02:43:56;;;;;;;21.88;9.02;;;;;;;14.31;100.00;102019.31;2616981;36;20165;-63
2021/08/14 02:49:05;;;;;;;27.58;8.90;;;;;;;14.35;100.00;102011.78;2616418;36;20042;-62
2021/08/14 02:51:34;;;;;;;22.38;9.15;;;;;;;14.39;100.00;102015.09;2617240;36;20034;-62
2021/08/14 02:54:02;;;;;;;23.95;8.77;;;;;;;14.41;100.00;102013.94;2617546;36;20034;-63
2021/08/14 02:56:30;;;;;;;22.75;8.95;;;;;;;14.39;100.00;102009.69;2617250;36;20159;-63
2021/08/14 02:58:58;;;;;;;27.95;9.93;;;;;;;14.44;100.00;102015.53;2617483;36;20125;-62
2021/08/14 03:01:26;;;;;;;28.15;10.38;;;;;;;14.42;100.00;102020.25;2616926;36;20038;-62
2021/08/14 03:03:55;;;;;;;24.73;9.43;;;;;;;14.44;100.00;102013.72;2616890;36;20162;-62
2021/08/14 03:06:29;;;;;;;31.43;10.57;;;;;;;14.44;100.00;102015.53;2617199;36;20061;-62
2021/08/14 03:08:58;;;;;;;24.30;9.73;;;;;;;14.47;100.00;102017.97;2616768;36;20105;-62
2021/08/14 03:11:26;;;;;;;21.52;10.20;;;;;;;14.48;100.00;102014.28;2616800;31;20126;-62
2021/08/14 03:13:55;;;;;;;24.38;10.82;;;;;;;14.47;100.00;102015.28;2616839;31;20583;-62
2021/08/14 03:16:23;;;;;;;27.17;9.55;;;;;;;14.51;100.00;102014.03;2617001;36;20069;-62
2021/08/14 03:18:51;;;;;;;25.08;10.68;;;;;;;14.55;100.00;102015.47;2616758;36;20073;-61
2021/08/14 03:21:19;;;;;;;23.83;10.68;;;;;;;14.52;100.00;102004.91;2616911;36;20034;-61
2021/08/14 03:23:49;;;;;;;27.67;11.40;;;;;;;14.56;100.00;102017.19;2616919;36;20166;-61
2021/08/14 03:26:17;;;;;;;31.67;11.57;;;;;;;14.54;100.00;102008.34;2617141;36;20030;-61
2021/08/14 03:28:45;;;;;;;24.25;10.75;;;;;;;14.58;100.00;102007.09;2617148;36;20102;-62
2021/08/14 03:31:13;;;;;;;30.90;11.18;;;;;;;14.54;100.00;102009.19;2616803;36;20058;-61
2021/08/14 03:33:42;;;;;;;33.70;12.82;;;;;;;14.56;100.00;102009.06;2617753;36;20420;-61
2021/08/14 03:36:10;;;;;;;36.70;11.30;;;;;;;14.57;100.00;102002.66;2616902;31;20137;-61
2021/08/14 03:38:38;;;;;;;28.10;11.25;;;;;;;14.57;100.00;102002.66;2617274;36;20311;-62
2021/08/14 03:41:09;;;;;;;36.47;10.70;;;;;;;14.61;100.00;102006.84;2614704;54;20662;-62
2021/08/14 03:43:37;;;;;;;32.10;10.77;;;;;;;14.61;100.00;102004.13;2617295;36;20033;-62
2021/08/14 03:46:06;;;;;;;30.25;11.23;;;;;;;14.62;100.00;102007.69;2616977;36;20077;-62
2021/08/14 03:48:34;;;;;;;30.58;11.50;;;;;;;14.63;100.00;102007.56;2617118;36;20130;-61
2021/08/14 03:51:02;;;;;;;27.90;11.15;;;;;;;14.66;100.00;102001.88;2617012;36;20106;-61
2021/08/14 03:53:31;;;;;;;26.02;10.77;;;;;;;14.64;100.00;102009.28;2617125;36;20023;-62
2021/08/14 03:56:00;;;;;;;30.20;10.82;;;;;;;14.68;100.00;102005.31;2616911;36;20037;-61
2021/08/14 03:58:33;;;;;;;24.70;11.63;;;;;;;14.68;100.00;102005.31;2617042;36;20590;-61
2021/08/14 04:01:01;;;;;;;26.73;11.30;;;;;;;14.68;100.00;102008.03;2617046;36;20562;-61
2021/08/14 04:03:30;;;;;;;27.70;10.93;;;;;;;14.71;100.00;102002.31;2617033;36;20149;-61
2021/08/14 04:05:58;;;;;;;30.95;12.73;;;;;;;14.72;100.00;102005.88;2617007;36;20165;-61
2021/08/14 04:08:28;;;;;;;34.63;10.88;;;;;;;14.71;100.00;102013.16;2617086;31;20133;-62
2021/08/14 04:10:56;;;;;;;27.23;10.90;;;;;;;14.69;100.00;102000.75;2616613;36;20171;-62
2021/08/14 04:13:24;;;;;;;31.93;10.80;;;;;;;14.67;100.00;102009.00;2616661;31;20061;-61
2021/08/14 04:15:54;;;;;;;29.42;11.05;;;;;;;14.64;100.00;102009.28;2616813;36;20482;-61
2021/08/14 04:18:22;;;;;;;25.92;11.32;;;;;;;14.62;100.00;102005.84;2616598;36;20118;-61
2021/08/14 04:20:50;;;;;;;25.88;11.60;;;;;;;14.61;100.00;101997.84;2617000;31;20114;-62
2021/08/14 04:23:19;;;;;;;28.65;11.70;;;;;;;14.57;100.00;101999.09;2616827;36;20150;-62
2021/08/14 04:25:47;;;;;;;29.20;11.23;;;;;;;14.57;100.00;102005.34;2616808;36;20126;-62
2021/08/14 04:28:15;;;;;;;28.10;10.95;;;;;;;14.54;100.00;102002.91;2616878;36;20038;-62
2021/08/14 04:30:43;;;;;;;33.25;12.43;;;;;;;14.51;100.00;101992.34;2616946;36;20114;-62
2021/08/14 04:33:13;;;;;;;27.77;11.40;;;;;;;14.47;100.00;101999.03;2617018;36;20110;-60
2021/08/14 04:35:41;;;;;;;26.58;10.82;;;;;;;14.42;100.00;101991.31;2617062;36;20126;-61
2021/08/14 04:38:09;;;;;;;24.08;9.88;;;;;;;14.41;100.00;102002.28;2614648;36;20121;-61
2021/08/14 04:40:38;;;;;;;32.10;11.37;;;;;;;14.43;100.00;101995.72;2616626;36;20114;-61
2021/08/14 04:43:06;;;;;;;26.80;10.80;;;;;;;14.40;100.00;102005.97;2616770;36;20146;-62
2021/08/14 04:45:34;;;;;;;27.20;10.80;;;;;;;14.40;100.00;101995.13;2616934;36;20631;-62
2021/08/14 04:48:02;;;;;;;29.70;11.87;;;;;;;14.39;100.00;101999.69;2616735;31;20129;-61
2021/08/14 04:50:32;;;;;;;29.80;12.00;;;;;;;14.37;100.00;102001.69;2616682;36;20169;-62
2021/08/14 04:53:00;;;;;;;36.40;12.50;;;;;;;14.37;100.00;102001.69;2617055;31;20483;-62
2021/08/14 04:55:28;;;;;;;24.02;9.98;;;;;;;14.32;100.00;101998.50;2616778;36;20631;-62
2021/08/14 04:57:56;;;;;;;29.55;10.48;;;;;;;14.32;100.00;102007.47;2617018;36;20049;-61
2021/08/14 05:00:25;;;;;;;30.38;12.10;;;;;;;14.38;100.00;102003.38;2616896;36;20130;-61
2021/08/14 05:02:53;;;;;;;33.60;11.27;;;;;;;14.37;100.00;101999.84;2616971;36;20137;-62
2021/08/14 05:05:21;;;;;;;29.90;11.52;;;;;;;14.42;100.00;102001.28;2617081;36;20382;-62
2021/08/14 05:07:51;;;;;;;33.80;11.27;;;;;;;14.49;100.00;101994.34;2617283;36;20169;-62
2021/08/14 05:10:19;;;;;;;26.70;11.10;;;;;;;14.54;100.00;101992.06;2617332;31;20169;-61
2021/08/14 05:12:47;;;;;;;27.90;10.63;;;;;;;14.58;100.00;101993.53;2617085;36;20121;-61
2021/08/14 05:15:15;;;;;;;25.63;10.77;;;;;;;14.60;100.00;101996.94;2616862;36;20149;-62
2021/08/14 05:17:44;;;;;;;28.25;10.00;;;;;;;14.66;100.00;101993.75;2616920;36;20090;-62
2021/08/14 05:20:12;;;;;;;25.08;10.05;;;;;;;14.68;100.00;101986.34;2616821;36;20114;-62
2021/08/14 05:22:40;;;;;;;32.38;10.88;;;;;;;14.70;100.00;101991.63;2617234;36;20042;-62
2021/08/14 05:25:11;;;;;;;25.27;9.98;;;;;;;14.65;100.00;101991.16;2616589;36;20126;-61
2021/08/14 05:27:40;;;;;;;24.90;9.73;;;;;;;14.73;100.00;101995.94;2617047;36;20134;-62
2021/08/14 05:30:08;;;;;;;25.50;10.75;;;;;;;14.70;100.00;101997.88;2616730;36;20158;-61
2021/08/14 05:32:36;;;;;;;22.08;9.57;;;;;;;14.76;100.00;101998.34;2617804;31;20518;-62
2021/08/14 05:35:05;;;;;;;21.15;9.73;;;;;;;14.77;100.00;101991.94;2616816;36;20114;-61
2021/08/14 05:37:33;;;;;;;29.60;10.50;;;;;;;14.71;100.00;101996.06;2617321;36;20158;-62
2021/08/14 05:40:02;;;;;;;31.13;10.35;;;;;;;14.64;100.00;101994.88;2617750;36;20088;-62
2021/08/14 05:42:32;;;;;;;23.85;9.60;;;;;;;14.61;100.00;101982.47;2617552;36;20591;-62
2021/08/14 05:45:00;;;;;;;25.88;10.27;;;;;;;14.68;100.00;101991.75;2617762;36;20157;-61
2021/08/14 05:47:28;;;;;;;25.70;10.38;;;;;;;14.73;100.00;101995.94;2617806;36;20054;-62
2021/08/14 05:49:56;;;;;;;23.48;10.00;;;;;;;14.82;100.00;101986.97;2617651;36;20138;-62
2021/08/14 05:52:25;;;;;;;23.40;10.02;;;;;;;14.82;100.00;101995.94;2617779;36;20629;-62
2021/08/14 05:54:53;;;;;;;17.40;9.15;;;;;;;14.88;100.00;101989.13;2617730;36;20034;-63
2021/08/14 05:57:21;;;;;;;27.60;9.83;;;;;;;14.97;100.00;101990.16;2617526;36;20130;-62
2021/08/14 05:59:51;;;;;;;24.25;9.55;;;;;;;15.12;100.00;101990.63;2617709;36;20337;-62
2021/08/14 06:02:19;;;;;;;27.02;9.88;;;;;;;15.31;100.00;101993.41;2617603;36;20125;-63
2021/08/14 06:04:47;;;;;;;23.25;9.57;;;;;;;15.29;100.00;101995.38;2617788;36;20118;-62
2021/08/14 06:07:15;;;;;;;20.73;9.02;;;;;;;15.44;100.00;101995.00;2617737;36;20034;-62
2021/08/14 06:09:43;;;;;;;26.33;8.90;;;;;;;15.57;100.00;101995.59;2617801;36;20041;-62
2021/08/14 06:12:12;;;;;;;24.02;9.45;;;;;;;15.35;100.00;101997.53;2617548;36;20030;-63
2021/08/14 06:14:41;;;;;;;26.63;9.40;;;;;;;15.26;100.00;101992.97;2617648;36;20543;-62
2021/08/14 06:17:10;;;;;;;20.77;9.00;;;;;;;15.14;100.00;102008.50;2617926;36;20022;-64
2021/08/14 06:19:38;;;;;;;23.00;9.45;;;;;;;15.06;100.00;101997.47;2617607;36;20342;-62
2021/08/14 06:22:07;;;;;;;29.37;9.87;;;;;;;14.98;100.00;102000.03;2617264;36;20578;-63
2021/08/14 06:24:35;;;;;;;20.05;8.82;;;;;;;15.06;100.00;102001.06;2617560;36;20034;-63
2021/08/14 06:27:03;;;;;;;27.40;10.15;;;;;;;15.15;100.00;102009.34;2617599;36;20114;-63
2021/08/14 06:29:32;;;;;;;27.10;10.77;;;;;;;15.28;100.00;102007.22;2617122;36;20584;-62
2021/08/14 06:32:00;;;;;;;22.80;9.30;;;;;;;15.33;100.00;101990.56;2617621;36;20055;-63
2021/08/14 06:34:30;;;;;;;21.10;8.77;;;;;;;15.47;100.00;101992.00;2617392;31;20027;-61
2021/08/14 06:36:58;;;;;;;26.55;10.63;;;;;;;15.55;100.00;101997.59;2617371;31;20051;-62
2021/08/14 06:39:26;;;;;;;25.98;9.50;;;;;;;15.76;100.00;101989.31;2617526;36;20085;-63
2021/08/14 06:41:54;;;;;;;28.67;10.13;;;;;;;15.88;100.00;101985.47;2617514;36;20050;-62
2021/08/14 06:44:22;;;;;;;24.95;9.27;;;;;;;16.05;100.00;101994.78;2617242;36;20138;-62
2021/08/14 06:46:51;;;;;;;21.15;8.90;;;;;;;16.10;100.00;101980.75;2617739;36;20068;-62
2021/08/14 06:49:19;;;;;;;25.50;9.20;;;;;;;16.03;100.00;101985.91;2617440;36;20481;-62
2021/08/14 06:51:48;;;;;;;23.17;9.63;;;;;;;16.12;100.00;101984.16;2617831;36;20122;-62
2021/08/14 06:54:17;;;;;;;29.90;10.35;;;;;;;16.29;100.00;101985.28;2617268;36;20050;-62
2021/08/14 06:56:45;;;;;;;25.20;9.27;;;;;;;16.38;100.00;101987.13;2617549;36;20153;-62
2021/08/14 06:59:13;;;;;;;25.10;9.53;;;;;;;16.57;100.00;101982.66;2617208;36;20646;-62
2021/08/14 07:01:41;;;;;;;25.83;9.50;;;;;;;16.70;100.00;101988.63;2617722;31;20073;-61
2021/08/14 07:04:10;;;;;;;20.30;9.10;;;;;;;16.86;100.00;101992.53;2617465;36;20130;-62
2021/08/14 07:09:09;;;;;;;24.05;9.38;;;;;;;16.88;100.00;101991.44;2615497;39;20420;-61
2021/08/14 07:11:37;;;;;;;21.15;9.60;;;;;;;16.95;100.00;101992.53;2617512;36;20031;-61
2021/08/14 07:14:06;;;;;;;22.63;9.03;;;;;;;17.14;100.00;101988.88;2617438;31;20544;-61
2021/08/14 07:16:34;;;;;;;29.03;9.90;;;;;;;16.98;100.00;101996.84;2618186;31;20055;-62
2021/08/14 07:19:02;;;;;;;24.85;9.35;;;;;;;17.09;100.00;101999.34;2617510;31;20098;-62
2021/08/14 07:21:30;;;;;;;22.50;9.87;;;;;;;17.22;100.00;101995.41;2617551;36;20607;-61
2021/08/14 07:23:59;;;;;;;24.27;10.32;;;;;;;17.37;100.00;102002.03;2617227;36;20030;-62
2021/08/14 07:26:28;;;;;;;20.37;9.53;;;;;;;17.22;100.00;102004.41;2617428;36;20555;-61
2021/08/14 07:28:56;;;;;;;23.13;10.07;;;;;;;17.17;100.00;101996.72;2617298;36;20130;-62
2021/08/14 07:31:25;;;;;;;27.45;10.70;;;;;;;17.49;100.00;101994.50;2618075;31;20034;-62
2021/08/14 07:33:53;;;;;;;25.52;10.02;;;;;;;17.73;100.00;101995.78;2617196;36;20685;-62
2021/08/14 07:36:21;;;;;;;25.17;10.60;;;;;;;17.69;100.00;101992.50;2617235;36;20114;-62
2021/08/14 07:38:49;;;;;;;24.87;10.73;;;;;;;17.45;100.00;101993.97;2617295;36;20633;-62
2021/08/14 07:41:18;;;;;;;26.33;11.13;;;;;;;17.62;100.00;101994.13;2617348;36;20122;-61
2021/08/14 07:43:48;;;;;;;22.85;10.80;;;;;;;17.65;100.00;102002.00;2617358;36;20279;-63
2021/08/14 07:46:16;;;;;;;28.38;11.73;;;;;;;17.82;100.00;102009.31;2617203;36;20034;-62
2021/08/14 07:48:44;;;;;;;29.43;12.00;;;;;;;17.95;100.00;101992.63;2617520;36;20125;-61
2021/08/14 07:51:13;;;;;;;27.98;11.15;;;;;;;18.16;100.00;101989.53;2617312;31;20646;-62
2021/08/14 07:53:41;;;;;;;28.87;12.00;;;;;;;18.01;100.00;101993.84;2617405;36;20073;-62
2021/08/14 07:56:09;;;;;;;29.23;11.80;;;;;;;18.07;100.00;101993.22;2616882;36;20109;-62
2021/08/14 07:58:37;;;;;;;28.60;11.18;;;;;;;18.12;100.00;101985.41;2617128;36;21033;-62
2021/08/14 08:01:07;;;;;;;27.47;12.50;;;;;;;18.47;100.00;101988.22;2616887;36;20066;-63
2021/08/14 08:03:35;;;;;;;23.50;11.23;;;;;;;18.50;100.00;101977.84;2617315;36;20292;-62
2021/08/14 08:06:04;;;;;;;27.97;13.00;;;;;;;18.64;100.00;101983.72;2614315;36;20514;-62
2021/08/14 08:08:32;;;;;;;27.83;14.00;;;;;;;18.47;100.00;101994.53;2617301;36;20026;-62
2021/08/14 08:11:00;;;;;;;27.30;12.80;;;;;;;18.40;100.00;101993.44;2617488;36;20359;-63
2021/08/14 08:13:28;;;;;;;31.00;14.90;;;;;;;18.11;100.00;102000.06;2617488;36;20093;-63
2021/08/14 08:15:57;;;;;;;32.53;13.85;;;;;;;18.10;100.00;102005.69;2617380;36;20106;-62
2021/08/14 08:18:27;;;;;;;34.53;15.65;;;;;;;18.26;100.00;101996.78;2616945;36;20034;-62
2021/08/14 08:20:55;;;;;;;32.45;15.45;;;;;;;18.30;100.00;102011.78;2618108;31;20508;-62
2021/08/14 08:23:23;;;;;;;28.67;15.60;;;;;;;18.51;100.00;102005.97;2617147;31;20114;-62
2021/08/14 08:25:51;;;;;;;40.13;18.73;;;;;;;17.98;100.00;102005.06;2617309;36;20127;-62
2021/08/14 08:28:23;;;;;;;37.63;18.10;;;;;;;18.21;100.00;102011.75;2617191;36;20026;-61
2021/08/14 08:30:51;;;;;;;35.55;18.30;;;;;;;18.59;100.00;102010.63;2617510;36;20671;-62
2021/08/14 08:33:20;;;;;;;37.58;19.23;;;;;;;18.44;100.00;101997.56;2617297;36;20058;-61
2021/08/14 08:35:49;;;;;;;38.47;19.13;;;;;;;18.56;100.00;102006.34;2617043;36;20109;-63
2021/08/14 08:38:20;;;;;;;39.95;19.48;;;;;;;18.86;100.00;101999.56;2617156;36;20302;-62
2021/08/14 08:40:49;;;;;;;43.08;21.35;;;;;;;18.59;100.00;102007.91;2617228;36;20026;-63
2021/08/14 08:43:18;;;;;;;36.10;20.63;;;;;;;18.46;100.00;102003.75;2617156;36;20027;-62
2021/08/14 08:45:47;;;;;;;47.63;20.80;;;;;;;18.36;100.00;102003.00;2617049;36;20165;-61
2021/08/14 08:48:19;;;;;;;35.85;18.90;;;;;;;18.81;100.00;101990.97;2617716;31;20172;-62
2021/08/14 08:50:50;;;;;;;40.65;18.88;;;;;;;19.25;100.00;101993.56;2617109;36;20041;-62
2021/08/14 08:53:18;;;;;;;37.78;19.70;;;;;;;18.70;100.00;101994.00;2617190;36;20110;-63
2021/08/14 08:55:48;;;;;;;40.47;19.70;;;;;;;18.43;100.00;101992.28;2617846;31;20061;-62
2021/08/14 08:58:17;;;;;;;36.78;19.15;;;;;;;18.54;100.00;101981.97;2616912;36;20080;-62
2021/08/14 09:00:45;;;;;;;;;;;;;;;18.35;100.00;101993.94;2617121;36;20118;-62
2021/08/14 09:03:16;;;;;;;39.28;20.95;;;;;;;18.35;100.00;101993.09;2617166;36;20014;-62
2021/08/14 09:05:51;;;;;;;43.83;21.35;;;;;;;18.34;100.00;101994.97;2616648;36;20118;-62
2021/08/14 09:08:20;;;;;;;42.33;20.42;;;;;;;18.54;100.00;102003.78;2616873;36;20419;-62
2021/08/14 09:10:50;;;;;;;35.20;19.38;;;;;;;18.83;100.00;101997.13;2617930;31;20472;-62
2021/08/14 09:13:20;;;;;;;39.65;19.33;;;;;;;18.58;100.00;101995.28;2617936;36;20031;-63
2021/08/14 09:15:49;;;;;;;36.47;18.17;;;;;;;19.18;100.00;101997.97;2617866;36;20161;-63
2021/08/14 09:18:19;;;;;;;37.22;18.55;;;;;;;19.15;100.00;101992.84;2617795;36;20080;-62
2021/08/14 09:20:53;;;;;;;39.58;17.77;;;;;;;18.84;100.00;101996.09;2618741;31;20526;-62
2021/08/14 09:23:23;;;;;;;34.17;18.95;;;;;;;18.51;100.00;101987.75;2617706;36;20077;-63
2021/08/14 09:25:51;;;;;;;;;;;;;;;18.42;100.00;101988.72;2617869;36;20117;-63
2021/08/14 09:28:21;;;;;;;41.72;19.40;;;;;;;18.54;100.00;101990.16;2617754;31;19946;-63
2021/08/14 09:30:52;;;;;;;34.22;18.67;;;;;;;18.71;100.00;101988.38;2618464;31;20506;-62
2021/08/14 09:33:23;;;;;;;35.47;18.67;;;;;;;19.08;100.00;101992.66;2617831;36;20033;-63
2021/08/14 09:35:58;;;;;;;38.30;19.80;;;;;;;18.69;100.00;101987.66;2618118;36;20399;-61
2021/08/14 09:38:40;;;;;;;36.08;17.90;;;;;;;18.84;100.00;101987.91;2617810;36;20030;-62
2021/08/14 09:41:10;;;;;;;38.78;17.65;;;;;;;19.36;100.00;101995.16;2617887;36;20038;-62
2021/08/14 09:43:39;;;;;;;34.97;18.17;;;;;;;19.29;100.00;101988.66;2617907;36;20027;-63
2021/08/14 09:46:07;;;;;;;35.90;17.65;;;;;;;19.56;100.00;101984.75;2617547;36;20547;-62
2021/08/14 09:48:35;;;;;;;33.13;16.52;;;;;;;19.71;100.00;101992.31;2617673;36;20547;-63
2021/08/14 09:51:05;;;;;;;34.05;18.23;;;;;;;19.31;100.00;101991.19;2617580;36;20129;-62
2021/08/14 09:56:09;;;;;;;36.92;18.20;;;;;;;19.18;100.00;101983.47;2615886;31;20064;-63
2021/08/14 09:58:39;;;;;;;30.70;17.52;;;;;;;19.05;100.00;101986.66;2618120;31;20122;-64
2021/08/14 10:01:09;;;;;;;33.88;18.40;;;;;;;19.22;100.00;101988.44;2617661;31;20072;-63
2021/08/14 10:03:38;;;;;;;39.97;20.67;;;;;;;19.06;100.00;101986.50;2617713;36;20154;-63
2021/08/14 10:06:12;;;;;;;37.90;19.13;;;;;;;19.07;100.00;101988.22;2618069;31;20027;-62
2021/08/14 10:08:42;;;;;;;34.25;19.73;;;;;;;19.19;100.00;101982.47;2617687;36;20098;-63
2021/08/14 10:11:13;;;;;;;30.73;17.83;;;;;;;19.01;100.00;101986.16;2617812;36;20049;-63
2021/08/14 10:13:42;;;;;;;32.50;18.77;;;;;;;18.80;100.00;101978.38;2617562;36;20031;-63
2021/08/14 10:16:11;;;;;;;41.03;19.73;;;;;;;18.87;100.00;101984.03;2618055;31;20558;-63
2021/08/14 10:18:41;;;;;;;39.63;21.65;;;;;;;18.89;100.00;101984.75;2618687;31;20502;-63
2021/08/14 10:21:11;;;;;;;37.70;21.05;;;;;;;19.20;100.00;101979.56;2617797;36;20042;-63
2021/08/14 10:23:41;;;;;;;36.00;17.70;;;;;;;19.90;100.00;101975.59;2617210;36;20073;-63
2021/08/14 10:26:14;;;;;;;35.22;18.95;;;;;;;20.31;100.00;101964.63;2617551;36;20122;-62
2021/08/14 10:28:48;;;;;;;37.05;18.02;;;;;;;20.75;100.00;101966.09;2617648;36;20041;-64
2021/08/14 10:31:47;;;;;;;33.40;17.45;;;;;;;20.67;100.00;101959.81;2617722;36;20114;-63
2021/08/14 10:34:31;;;;;;;32.67;17.58;;;;;;;20.81;100.00;101967.28;2617609;36;20030;-62
2021/08/14 10:37:01;;;;;;;35.50;16.83;;;;;;;20.35;100.00;101950.66;2618018;36;20430;-63
2021/08/14 10:39:31;;;;;;;32.42;14.63;;;;;;;21.21;100.00;101951.69;2617787;36;20130;-63
2021/08/14 10:42:01;;;;;;;30.75;15.95;;;;;;;21.60;100.00;101945.31;2617748;36;20034;-63
2021/08/14 10:44:45;;;;;;;29.42;15.43;;;;;;;21.52;100.00;101945.34;2617475;36;20046;-63
2021/08/14 10:47:44;;;;;;;30.65;15.60;;;;;;;20.90;100.00;101947.06;2617668;36;20034;-63
2021/08/14 10:50:32;;;;;;;32.85;16.35;;;;;;;20.64;100.00;101939.97;2617479;36;20038;-63
2021/08/14 10:53:22;;;;;;;28.13;14.00;;;;;;;20.87;100.00;101947.41;2617874;36;20352;-63
2021/08/14 10:55:52;;;;;;;31.33;15.07;;;;;;;20.48;100.00;101940.84;2617538;36;20065;-62
2021/08/14 10:58:24;;;;;;;31.40;14.82;;;;;;;20.67;100.00;101937.91;2617230;36;20046;-63
2021/08/14 11:00:54;;;;;;;34.88;14.25;;;;;;;20.87;100.00;101947.41;2617551;36;20034;-63
2021/08/14 11:03:23;;;;;;;30.70;13.73;;;;;;;20.93;100.00;101941.22;2617491;36;20034;-63
2021/08/14 11:05:52;;;;;;;28.65;14.45;;;;;;;20.72;100.00;101936.38;2617443;36;20023;-61
2021/08/14 11:08:34;;;;;;;29.55;14.05;;;;;;;20.58;100.00;101939.78;2617330;36;20105;-63
2021/08/14 11:11:02;;;;;;;37.67;14.98;;;;;;;20.63;100.00;101930.03;2617508;36;20117;-63
2021/08/14 11:14:08;;;;;;;27.10;14.23;;;;;;;20.56;100.00;101931.78;2617586;36;20038;-63
2021/08/14 11:17:01;;;;;;;29.67;13.40;;;;;;;20.43;100.00;101926.84;2617441;31;20026;-63
2021/08/14 11:19:51;;;;;;;29.67;15.63;;;;;;;19.99;100.00;101934.63;2617366;36;20026;-63
2021/08/14 11:22:28;;;;;;;30.63;14.95;;;;;;;19.86;100.00;101936.00;2617533;36;20030;-62
2021/08/14 11:25:00;;;;;;;35.88;15.85;;;;;;;20.10;100.00;101929.66;2617211;36;20027;-64
2021/08/14 11:27:30;;;;;;;32.13;15.60;;;;;;;20.23;100.00;101929.13;2617471;36;20033;-64